Filia Ariea — PIET — position and weather

sailwx.info

Track history (hours):
 
Tides and Currents Weather Stations Pressure Air Temp Water Temp Dewpoint Dewpoint Depression Visibility Wind Speed Wind Dir Waves Ship Positions

Filia Ariea

Last reported at 2016-Jul-02 08:31 UTC. Time now 2016-Jul-02 09:33 UTC.
Position N 53°38' W 000°12'.

Length 90 m; draft 4.5 m.

Type: Ship. MMSI: 244662000.

Date/timePositionNaut miles runAvg speedWind from/ knotsBaromVisibWave heightAir tempDewpointWater temp
2016-Jul-02 08:31N 53°38' W 000°12'0 0.0
2016-Jul-02 07:31N 53°38' W 000°12'0 0.0
2016-Jul-02 06:34N 53°38' W 000°12'0 0.0
2016-Jul-02 04:32N 53°38' W 000°12'0 0.0
2016-Jul-02 03:32N 53°38' W 000°12'0 0.0
2016-Jul-02 02:32N 53°38' W 000°12'0 0.0
2016-Jul-02 01:31N 53°38' W 000°12'0 0.0
2016-Jul-02 00:31N 53°38' W 000°12'0 0.0
2016-Jul-01 23:33N 53°38' W 000°12'0 0.3
2016-Jul-01 22:34N 53°38' W 000°11'7 6.8
2016-Jul-01 21:33N 53°35' W 000°01'9 9.1
2016-Jul-01 20:33N 53°33' E 000°14'6 5.7
2016-Jul-01 19:33N 53°35' E 000°23'1 0.6
2016-Jul-01 18:24N 53°36' E 000°24'0 0.0
2016-Jul-01 17:32N 53°36' E 000°24'0 0.0
2016-Jul-01 16:11N 53°36' E 000°24'0 0.1
2016-Jul-01 15:30N 53°36' E 000°24'16 8.1
2016-Jul-01 13:28N 53°27' E 000°47'12410.1
2016-Jul-01 01:12N 52°35' E 003°53'6 9.2
2016-Jul-01 00:33N 52°32' E 004°02'9 9.0
2016-Jun-30 23:34N 52°31' E 004°17'9 9.5
2016-Jun-30 22:34N 52°28' E 004°32'3 3.0
2016-Jun-30 21:34N 52°28' E 004°37'7 7.5
2016-Jun-30 20:33N 52°25' E 004°48'2 2.4
2016-Jun-30 19:33N 52°24' E 004°51'0 0.0
2016-Jun-30 18:32N 52°24' E 004°51'0 0.0
2016-Jun-30 17:32N 52°24' E 004°51'0 0.0
2016-Jun-30 16:33N 52°24' E 004°51'0 0.0
2016-Jun-30 15:31N 52°24' E 004°51'0 0.0
2016-Jun-30 14:33N 52°24' E 004°51'0 0.0
2016-Jun-30 13:33N 52°24' E 004°51'0 0.0
2016-Jun-30 12:32N 52°24' E 004°51'0 0.0
2016-Jun-30 11:32N 52°24' E 004°51'0 0.0
2016-Jun-30 10:32N 52°24' E 004°51'0 0.0
2016-Jun-30 09:31N 52°24' E 004°51'0 0.0
2016-Jun-30 08:31N 52°24' E 004°51'0 0.0
2016-Jun-30 07:33N 52°24' E 004°51'0 0.0
2016-Jun-30 06:33N 52°24' E 004°51'0 0.0
2016-Jun-30 05:29N 52°24' E 004°51'0 0.0
2016-Jun-30 04:29N 52°24' E 004°51'0 0.0
2016-Jun-30 03:31N 52°24' E 004°51'0 0.0
2016-Jun-30 02:31N 52°24' E 004°51'0 0.0
2016-Jun-30 01:31N 52°24' E 004°51'0 0.0
2016-Jun-30 00:33N 52°24' E 004°51'0 0.0
2016-Jun-29 23:33N 52°24' E 004°51'0 0.0
2016-Jun-29 22:32N 52°24' E 004°51'0 0.0
2016-Jun-29 21:32N 52°24' E 004°51'0 0.0
2016-Jun-29 20:28N 52°24' E 004°51'0 0.0
2016-Jun-29 19:31N 52°24' E 004°51'0 0.0
2016-Jun-29 18:31N 52°24' E 004°51'0 0.0
2016-Jun-29 17:33N 52°24' E 004°51'0 0.0
2016-Jun-29 16:33N 52°24' E 004°51'0 0.0
2016-Jun-29 15:32N 52°24' E 004°51'0 0.0
2016-Jun-29 14:32N 52°24' E 004°51'0 0.0
2016-Jun-29 13:31N 52°24' E 004°51'0 0.0
2016-Jun-29 12:28N 52°24' E 004°51'0 0.0
2016-Jun-29 11:28N 52°24' E 004°51'0 0.2
2016-Jun-29 10:33N 52°24' E 004°52'0 0.0
2016-Jun-29 09:32N 52°24' E 004°52'0 0.0
2016-Jun-29 08:31N 52°24' E 004°52'0 0.0
2016-Jun-29 07:31N 52°24' E 004°52'0 0.0
2016-Jun-29 06:31N 52°24' E 004°52'0 0.0
2016-Jun-29 05:30N 52°24' E 004°52'0 0.0
2016-Jun-29 04:33N 52°24' E 004°52'0 0.0
2016-Jun-29 03:32N 52°24' E 004°52'0 0.0
2016-Jun-29 02:32N 52°24' E 004°52'0 0.0
2016-Jun-29 01:32N 52°24' E 004°52'0 0.0
2016-Jun-29 00:31N 52°24' E 004°52'0 0.0
2016-Jun-28 23:31N 52°24' E 004°52'0 0.0
2016-Jun-28 22:30N 52°24' E 004°52'0 0.0
2016-Jun-28 21:33N 52°24' E 004°52'0 0.0
2016-Jun-28 20:33N 52°24' E 004°52'0 0.0
2016-Jun-28 19:32N 52°24' E 004°52'0 0.0
2016-Jun-28 18:32N 52°24' E 004°52'0 0.0
2016-Jun-28 17:31N 52°24' E 004°52'0 0.0
2016-Jun-28 16:31N 52°24' E 004°52'0 0.0
2016-Jun-28 15:33N 52°24' E 004°52'0 0.0
2016-Jun-28 14:30N 52°24' E 004°52'0 0.0
2016-Jun-28 13:29N 52°24' E 004°52'0 0.0
2016-Jun-28 12:32N 52°24' E 004°52'0 0.0
2016-Jun-28 11:32N 52°24' E 004°52'0 0.0
2016-Jun-28 10:31N 52°24' E 004°52'0 0.0
2016-Jun-28 09:31N 52°24' E 004°52'0 0.0
2016-Jun-28 08:33N 52°24' E 004°52'0 0.0
2016-Jun-28 07:33N 52°24' E 004°52'0 0.0
2016-Jun-28 06:32N 52°24' E 004°52'0 0.0
2016-Jun-28 04:32N 52°24' E 004°52'0 0.0
2016-Jun-28 03:32N 52°24' E 004°52'0 0.0
2016-Jun-28 02:31N 52°24' E 004°52'0 0.0
2016-Jun-28 01:30N 52°24' E 004°52'0 0.0
2016-Jun-28 00:33N 52°24' E 004°52'0 0.0
2016-Jun-27 23:32N 52°24' E 004°52'0 0.0
2016-Jun-27 22:32N 52°24' E 004°52'0 0.0
2016-Jun-27 21:32N 52°24' E 004°52'0 0.0
2016-Jun-27 20:31N 52°24' E 004°52'0 0.0
2016-Jun-27 19:31N 52°24' E 004°52'0 0.0
2016-Jun-27 18:33N 52°24' E 004°52'0 0.0
2016-Jun-27 17:33N 52°24' E 004°52'0 0.0
2016-Jun-27 16:32N 52°24' E 004°52'0 0.0
2016-Jun-27 15:32N 52°24' E 004°52'0 0.0
2016-Jun-27 14:32N 52°24' E 004°52'0 0.1
2016-Jun-27 13:33N 52°24' E 004°52'7 6.6
2016-Jun-27 12:33N 52°27' E 004°42'2 2.3
2016-Jun-27 11:32N 52°28' E 004°39'0 0.0
2016-Jun-27 10:29N 52°28' E 004°39'0 0.0
2016-Jun-27 09:31N 52°28' E 004°39'0 0.0
2016-Jun-27 08:31N 52°28' E 004°39'0 0.0
2016-Jun-27 07:34N 52°28' E 004°39'0 0.0
2016-Jun-27 06:33N 52°28' E 004°39'0 0.0
2016-Jun-27 05:33N 52°28' E 004°39'0 0.0
2016-Jun-27 04:32N 52°28' E 004°39'0 0.0
2016-Jun-27 03:32N 52°28' E 004°39'0 0.0
2016-Jun-27 02:31N 52°28' E 004°39'0 0.0
2016-Jun-27 01:31N 52°28' E 004°39'0 0.0
2016-Jun-27 00:31N 52°28' E 004°39'0 0.0
2016-Jun-26 23:33N 52°28' E 004°39'0 0.0
2016-Jun-26 22:33N 52°28' E 004°39'0 0.0
2016-Jun-26 21:29N 52°28' E 004°39'0 0.0
2016-Jun-26 20:32N 52°28' E 004°39'0 0.0
2016-Jun-26 19:31N 52°28' E 004°39'0 0.0
2016-Jun-26 18:31N 52°28' E 004°39'0 0.0
2016-Jun-26 17:31N 52°28' E 004°39'0 0.0
2016-Jun-26 16:30N 52°28' E 004°39'0 0.0
2016-Jun-26 15:33N 52°28' E 004°39'0 0.0
2016-Jun-26 14:32N 52°28' E 004°39'0 0.0
2016-Jun-26 13:32N 52°28' E 004°39'0 0.0
2016-Jun-26 12:31N 52°28' E 004°39'0 0.0
2016-Jun-26 11:31N 52°28' E 004°39'0 0.0
2016-Jun-26 10:31N 52°28' E 004°39'0 0.0
2016-Jun-26 09:33N 52°28' E 004°39'0 0.0
2016-Jun-26 08:33N 52°28' E 004°39'0 0.0
2016-Jun-26 07:32N 52°28' E 004°39'0 0.0
2016-Jun-26 06:32N 52°28' E 004°39'0 0.0
2016-Jun-26 05:31N 52°28' E 004°39'0 0.0
2016-Jun-26 04:31N 52°28' E 004°39'0 0.0
2016-Jun-26 03:33N 52°28' E 004°39'0 0.0
2016-Jun-26 02:33N 52°28' E 004°39'0 0.0
2016-Jun-26 01:33N 52°28' E 004°39'0 0.0
2016-Jun-26 00:29N 52°28' E 004°39'0 0.0
2016-Jun-25 23:32N 52°28' E 004°39'0 0.0
2016-Jun-25 22:31N 52°28' E 004°39'0 0.0
2016-Jun-25 21:33N 52°28' E 004°39'2 1.8
2016-Jun-25 20:33N 52°28' E 004°36'7 7.0
2016-Jun-25 19:33N 52°33' E 004°28'9 9.3
2016-Jun-25 18:33N 52°42' E 004°31'10 9.8
2016-Jun-25 17:33N 52°52' E 004°33'1110.6
2016-Jun-25 16:29N 53°03' E 004°34'10 9.7
2016-Jun-25 15:28N 53°13' E 004°28'1212.7
2016-Jun-25 14:31N 53°24' E 004°34'1212.3
2016-Jun-25 13:32N 53°36' E 004°40'1111.7
2016-Jun-25 12:33N 53°46' E 004°48'1111.1
2016-Jun-25 11:33N 53°57' E 004°55'1111.1
2016-Jun-25 10:32N 54°07' E 005°02'1212.3
2016-Jun-25 09:33N 54°16' E 005°16'1111.3
2016-Jun-25 08:33N 54°25' E 005°26'1311.9
2016-Jun-25 07:30N 54°36' E 005°39'30711.4
2016-Jun-24 04:33N 58°57' E 010°31'1010.1
2016-Jun-24 03:33N 59°07' E 010°35'1212.2
2016-Jun-24 02:33N 59°19' E 010°35'8 7.7
2016-Jun-24 01:33N 59°27' E 010°31'7 7.4
2016-Jun-24 00:33N 59°34' E 010°25'8 7.8
2016-Jun-23 23:33N 59°41' E 010°22'1 0.0
2016-Jun-22 20:33N 59°41' E 010°23'9 9.3
2016-Jun-22 19:34N 59°32' E 010°25'1110.8
2016-Jun-22 18:34N 59°22' E 010°35'1111.2
2016-Jun-22 17:33N 59°11' E 010°39'1110.7
2016-Jun-22 16:34N 59°01' E 010°33'1010.0
2016-Jun-22 15:34N 58°52' E 010°23'1111.0
2016-Jun-22 14:33N 58°43' E 010°13'1110.7
2016-Jun-22 13:34N 58°33' E 010°04'1010.4
2016-Jun-22 12:33N 58°24' E 009°53'1110.7
2016-Jun-22 11:34N 58°15' E 009°42'1111.3
2016-Jun-22 10:33N 58°06' E 009°31'2411.8
2016-Jun-22 08:33N 57°45' E 009°08'  
Track history (hours):
 
Tides and Currents Weather Stations Pressure Air Temp Water Temp Dewpoint Dewpoint Depression Visibility Wind Speed Wind Dir Waves Ship Positions

Filia Ariea

Last reported at 2016-Jul-02 08:31 UTC. Time now 2016-Jul-02 09:33 UTC.
Position N 53°38' W 000°12'.

Length 90 m; draft 4.5 m.

Type: Ship. MMSI: 244662000.

Date/timePositionNaut miles runAvg speedWind from/ knotsBaromVisibWave heightAir tempDewpointWater temp
2016-Jul-02 08:31N 53°38' W 000°12'0 0.0
2016-Jul-02 07:31N 53°38' W 000°12'0 0.0
2016-Jul-02 06:34N 53°38' W 000°12'0 0.0
2016-Jul-02 04:32N 53°38' W 000°12'0 0.0
2016-Jul-02 03:32N 53°38' W 000°12'0 0.0
2016-Jul-02 02:32N 53°38' W 000°12'0 0.0
2016-Jul-02 01:31N 53°38' W 000°12'0 0.0
2016-Jul-02 00:31N 53°38' W 000°12'0 0.0
2016-Jul-01 23:33N 53°38' W 000°12'0 0.3
2016-Jul-01 22:34N 53°38' W 000°11'7 6.8
2016-Jul-01 21:33N 53°35' W 000°01'9 9.1
2016-Jul-01 20:33N 53°33' E 000°14'6 5.7
2016-Jul-01 19:33N 53°35' E 000°23'1 0.6
2016-Jul-01 18:24N 53°36' E 000°24'0 0.0
2016-Jul-01 17:32N 53°36' E 000°24'0 0.0
2016-Jul-01 16:11N 53°36' E 000°24'0 0.1
2016-Jul-01 15:30N 53°36' E 000°24'16 8.1
2016-Jul-01 13:28N 53°27' E 000°47'12410.1
2016-Jul-01 01:12N 52°35' E 003°53'6 9.2
2016-Jul-01 00:33N 52°32' E 004°02'9 9.0
2016-Jun-30 23:34N 52°31' E 004°17'9 9.5
2016-Jun-30 22:34N 52°28' E 004°32'3 3.0
2016-Jun-30 21:34N 52°28' E 004°37'7 7.5
2016-Jun-30 20:33N 52°25' E 004°48'2 2.4
2016-Jun-30 19:33N 52°24' E 004°51'0 0.0
2016-Jun-30 18:32N 52°24' E 004°51'0 0.0
2016-Jun-30 17:32N 52°24' E 004°51'0 0.0
2016-Jun-30 16:33N 52°24' E 004°51'0 0.0
2016-Jun-30 15:31N 52°24' E 004°51'0 0.0
2016-Jun-30 14:33N 52°24' E 004°51'0 0.0
2016-Jun-30 13:33N 52°24' E 004°51'0 0.0
2016-Jun-30 12:32N 52°24' E 004°51'0 0.0
2016-Jun-30 11:32N 52°24' E 004°51'0 0.0
2016-Jun-30 10:32N 52°24' E 004°51'0 0.0
2016-Jun-30 09:31N 52°24' E 004°51'0 0.0
2016-Jun-30 08:31N 52°24' E 004°51'0 0.0
2016-Jun-30 07:33N 52°24' E 004°51'0 0.0
2016-Jun-30 06:33N 52°24' E 004°51'0 0.0
2016-Jun-30 05:29N 52°24' E 004°51'0 0.0
2016-Jun-30 04:29N 52°24' E 004°51'0 0.0
2016-Jun-30 03:31N 52°24' E 004°51'0 0.0
2016-Jun-30 02:31N 52°24' E 004°51'0 0.0
2016-Jun-30 01:31N 52°24' E 004°51'0 0.0
2016-Jun-30 00:33N 52°24' E 004°51'0 0.0
2016-Jun-29 23:33N 52°24' E 004°51'0 0.0
2016-Jun-29 22:32N 52°24' E 004°51'0 0.0
2016-Jun-29 21:32N 52°24' E 004°51'0 0.0
2016-Jun-29 20:28N 52°24' E 004°51'0 0.0
2016-Jun-29 19:31N 52°24' E 004°51'0 0.0
2016-Jun-29 18:31N 52°24' E 004°51'0 0.0
2016-Jun-29 17:33N 52°24' E 004°51'0 0.0
2016-Jun-29 16:33N 52°24' E 004°51'0 0.0
2016-Jun-29 15:32N 52°24' E 004°51'0 0.0
2016-Jun-29 14:32N 52°24' E 004°51'0 0.0
2016-Jun-29 13:31N 52°24' E 004°51'0 0.0
2016-Jun-29 12:28N 52°24' E 004°51'0 0.0
2016-Jun-29 11:28N 52°24' E 004°51'0 0.2
2016-Jun-29 10:33N 52°24' E 004°52'0 0.0
2016-Jun-29 09:32N 52°24' E 004°52'0 0.0
2016-Jun-29 08:31N 52°24' E 004°52'0 0.0
2016-Jun-29 07:31N 52°24' E 004°52'0 0.0
2016-Jun-29 06:31N 52°24' E 004°52'0 0.0
2016-Jun-29 05:30N 52°24' E 004°52'0 0.0
2016-Jun-29 04:33N 52°24' E 004°52'0 0.0
2016-Jun-29 03:32N 52°24' E 004°52'0 0.0
2016-Jun-29 02:32N 52°24' E 004°52'0 0.0
2016-Jun-29 01:32N 52°24' E 004°52'0 0.0
2016-Jun-29 00:31N 52°24' E 004°52'0 0.0
2016-Jun-28 23:31N 52°24' E 004°52'0 0.0
2016-Jun-28 22:30N 52°24' E 004°52'0 0.0
2016-Jun-28 21:33N 52°24' E 004°52'0 0.0
2016-Jun-28 20:33N 52°24' E 004°52'0 0.0
2016-Jun-28 19:32N 52°24' E 004°52'0 0.0
2016-Jun-28 18:32N 52°24' E 004°52'0 0.0
2016-Jun-28 17:31N 52°24' E 004°52'0 0.0
2016-Jun-28 16:31N 52°24' E 004°52'0 0.0
2016-Jun-28 15:33N 52°24' E 004°52'0 0.0
2016-Jun-28 14:30N 52°24' E 004°52'0 0.0
2016-Jun-28 13:29N 52°24' E 004°52'0 0.0
2016-Jun-28 12:32N 52°24' E 004°52'0 0.0
2016-Jun-28 11:32N 52°24' E 004°52'0 0.0
2016-Jun-28 10:31N 52°24' E 004°52'0 0.0
2016-Jun-28 09:31N 52°24' E 004°52'0 0.0
2016-Jun-28 08:33N 52°24' E 004°52'0 0.0
2016-Jun-28 07:33N 52°24' E 004°52'0 0.0
2016-Jun-28 06:32N 52°24' E 004°52'0 0.0
2016-Jun-28 04:32N 52°24' E 004°52'0 0.0
2016-Jun-28 03:32N 52°24' E 004°52'0 0.0
2016-Jun-28 02:31N 52°24' E 004°52'0 0.0
2016-Jun-28 01:30N 52°24' E 004°52'0 0.0
2016-Jun-28 00:33N 52°24' E 004°52'0 0.0
2016-Jun-27 23:32N 52°24' E 004°52'0 0.0
2016-Jun-27 22:32N 52°24' E 004°52'0 0.0
2016-Jun-27 21:32N 52°24' E 004°52'0 0.0
2016-Jun-27 20:31N 52°24' E 004°52'0 0.0
2016-Jun-27 19:31N 52°24' E 004°52'0 0.0
2016-Jun-27 18:33N 52°24' E 004°52'0 0.0
2016-Jun-27 17:33N 52°24' E 004°52'0 0.0
2016-Jun-27 16:32N 52°24' E 004°52'0 0.0
2016-Jun-27 15:32N 52°24' E 004°52'0 0.0
2016-Jun-27 14:32N 52°24' E 004°52'0 0.1
2016-Jun-27 13:33N 52°24' E 004°52'7 6.6
2016-Jun-27 12:33N 52°27' E 004°42'2 2.3
2016-Jun-27 11:32N 52°28' E 004°39'0 0.0
2016-Jun-27 10:29N 52°28' E 004°39'0 0.0
2016-Jun-27 09:31N 52°28' E 004°39'0 0.0
2016-Jun-27 08:31N 52°28' E 004°39'0 0.0
2016-Jun-27 07:34N 52°28' E 004°39'0 0.0
2016-Jun-27 06:33N 52°28' E 004°39'0 0.0
2016-Jun-27 05:33N 52°28' E 004°39'0 0.0
2016-Jun-27 04:32N 52°28' E 004°39'0 0.0
2016-Jun-27 03:32N 52°28' E 004°39'0 0.0
2016-Jun-27 02:31N 52°28' E 004°39'0 0.0
2016-Jun-27 01:31N 52°28' E 004°39'0 0.0
2016-Jun-27 00:31N 52°28' E 004°39'0 0.0
2016-Jun-26 23:33N 52°28' E 004°39'0 0.0
2016-Jun-26 22:33N 52°28' E 004°39'0 0.0
2016-Jun-26 21:29N 52°28' E 004°39'0 0.0
2016-Jun-26 20:32N 52°28' E 004°39'0 0.0
2016-Jun-26 19:31N 52°28' E 004°39'0 0.0
2016-Jun-26 18:31N 52°28' E 004°39'0 0.0
2016-Jun-26 17:31N 52°28' E 004°39'0 0.0
2016-Jun-26 16:30N 52°28' E 004°39'0 0.0
2016-Jun-26 15:33N 52°28' E 004°39'0 0.0
2016-Jun-26 14:32N 52°28' E 004°39'0 0.0
2016-Jun-26 13:32N 52°28' E 004°39'0 0.0
2016-Jun-26 12:31N 52°28' E 004°39'0 0.0
2016-Jun-26 11:31N 52°28' E 004°39'0 0.0
2016-Jun-26 10:31N 52°28' E 004°39'0 0.0
2016-Jun-26 09:33N 52°28' E 004°39'0 0.0
2016-Jun-26 08:33N 52°28' E 004°39'0 0.0
2016-Jun-26 07:32N 52°28' E 004°39'0 0.0
2016-Jun-26 06:32N 52°28' E 004°39'0 0.0
2016-Jun-26 05:31N 52°28' E 004°39'0 0.0
2016-Jun-26 04:31N 52°28' E 004°39'0 0.0
2016-Jun-26 03:33N 52°28' E 004°39'0 0.0
2016-Jun-26 02:33N 52°28' E 004°39'0 0.0
2016-Jun-26 01:33N 52°28' E 004°39'0 0.0
2016-Jun-26 00:29N 52°28' E 004°39'0 0.0
2016-Jun-25 23:32N 52°28' E 004°39'0 0.0
2016-Jun-25 22:31N 52°28' E 004°39'0 0.0
2016-Jun-25 21:33N 52°28' E 004°39'2 1.8
2016-Jun-25 20:33N 52°28' E 004°36'7 7.0
2016-Jun-25 19:33N 52°33' E 004°28'9 9.3
2016-Jun-25 18:33N 52°42' E 004°31'10 9.8
2016-Jun-25 17:33N 52°52' E 004°33'1110.6
2016-Jun-25 16:29N 53°03' E 004°34'10 9.7
2016-Jun-25 15:28N 53°13' E 004°28'1212.7
2016-Jun-25 14:31N 53°24' E 004°34'1212.3
2016-Jun-25 13:32N 53°36' E 004°40'1111.7
2016-Jun-25 12:33N 53°46' E 004°48'1111.1
2016-Jun-25 11:33N 53°57' E 004°55'1111.1
2016-Jun-25 10:32N 54°07' E 005°02'1212.3
2016-Jun-25 09:33N 54°16' E 005°16'1111.3
2016-Jun-25 08:33N 54°25' E 005°26'1311.9
2016-Jun-25 07:30N 54°36' E 005°39'30711.4
2016-Jun-24 04:33N 58°57' E 010°31'1010.1
2016-Jun-24 03:33N 59°07' E 010°35'1212.2
2016-Jun-24 02:33N 59°19' E 010°35'8 7.7
2016-Jun-24 01:33N 59°27' E 010°31'7 7.4
2016-Jun-24 00:33N 59°34' E 010°25'8 7.8
2016-Jun-23 23:33N 59°41' E 010°22'1 0.0
2016-Jun-22 20:33N 59°41' E 010°23'9 9.3
2016-Jun-22 19:34N 59°32' E 010°25'1110.8
2016-Jun-22 18:34N 59°22' E 010°35'1111.2
2016-Jun-22 17:33N 59°11' E 010°39'1110.7
2016-Jun-22 16:34N 59°01' E 010°33'1010.0
2016-Jun-22 15:34N 58°52' E 010°23'1111.0
2016-Jun-22 14:33N 58°43' E 010°13'1110.7
2016-Jun-22 13:34N 58°33' E 010°04'1010.4
2016-Jun-22 12:33N 58°24' E 009°53'1110.7
2016-Jun-22 11:34N 58°15' E 009°42'1111.3
2016-Jun-22 10:33N 58°06' E 009°31'2411.8
2016-Jun-22 08:33N 57°45' E 009°08'  

Dump ship's entire track history